Turret, Colorado
Current Conditions -  °F | °C
As of 3:55 AM on Monday 20 Oct 2014 (Local Time) from KANK Reporting Station
Clear Clear  
Wind Chill: 40°   Ceiling: Unl
Heat Index: 42°   Visibility: 10mi
Dew Point: 35°   Wind: 5mph
Humidity: 74%   Direction: 270°W
Pressure: 30.37"   Gusts: NA
Location:  38.5561°N, 106.066°W
Report Text: KANK 200955Z AUTO 27004KT 10SM CLR 06/02 A3037 RMK AO1 T00580015
Loading
Personal Weather Stations






























Interactive Weather Map
Tropical Storm Tracking
New forecast layout! Learn more

10-Day Weather Forecast

Advertisements
Track Severe Weather on mobile